Time;durP1;ratioP1;P1;durP2;ratioP2;P2;SDS_P1;SDS_P2;PMS_P1;PMS_P2;Temp;Humidity;BMP_temperature;BMP_pressure;BME280_temperature;BME280_humidity;BME280_pressure;Samples;Min_cycle;Max_cycle;Signal;HPM_P1;HPM_P2
2023/08/19 00:00:45;;;;;;;8.70;4.80;;;22.60;99.30;;;;;;21000472;28;20249;-64
2023/08/19 00:10:47;;;;;;;6.97;4.97;;;22.80;99.80;;;;;;21000168;28;20233;-63
2023/08/19 00:20:52;;;;;;;12.07;4.70;;;22.40;99.90;;;;;;20998738;28;20321;-63
2023/08/19 00:30:54;;;;;;;7.53;4.40;;;22.40;99.90;;;;;;20998091;28;20570;-63
2023/08/19 00:40:55;;;;;;;5.87;4.50;;;22.30;99.90;;;;;;21008304;28;20239;-64
2023/08/19 00:50:58;;;;;;;6.97;4.17;;;22.20;99.90;;;;;;21025770;28;20764;-63
2023/08/19 01:01:00;;;;;;;7.10;4.20;;;22.10;99.90;;;;;;20996873;28;20593;-63
2023/08/19 01:11:27;;;;;;;8.27;4.50;;;22.00;99.90;;;;;;20996487;28;20319;-69
2023/08/19 01:21:29;;;;;;;7.53;4.50;;;21.80;99.90;;;;;;20997756;28;20231;-68
2023/08/19 01:31:30;;;;;;;6.87;5.00;;;21.80;99.90;;;;;;20996850;28;20306;-63
2023/08/19 01:41:34;;;;;;;8.77;5.30;;;21.60;99.90;;;;;;20995144;28;20227;-62
2023/08/19 01:51:36;;;;;;;9.97;5.20;;;21.60;99.90;;;;;;21007019;28;20294;-64
2023/08/19 02:01:37;;;;;;;9.70;5.10;;;21.50;99.90;;;;;;21009862;28;20231;-63
2023/08/19 02:11:39;;;;;;;9.47;5.00;;;21.40;99.90;;;;;;21009364;28;20240;-64
2023/08/19 02:21:41;;;;;;;7.47;4.90;;;21.30;99.90;;;;;;21008260;28;20231;-63
2023/08/19 02:31:43;;;;;;;7.03;4.53;;;21.20;99.90;;;;;;21007585;28;20627;-66
2023/08/19 02:41:45;;;;;;;8.93;4.93;;;21.20;99.90;;;;;;21007114;28;20321;-65
2023/08/19 02:51:46;;;;;;;8.10;4.80;;;21.20;99.90;;;;;;21006139;28;20298;-64
2023/08/19 03:01:48;;;;;;;12.77;5.07;;;21.10;99.90;;;;;;21004354;28;20227;-63
2023/08/19 03:11:50;;;;;;;6.47;5.20;;;21.00;99.90;;;;;;21014386;28;20241;-63
2023/08/19 03:21:51;;;;;;;8.90;5.23;;;20.80;99.90;;;;;;21043457;28;20253;-62
2023/08/19 03:31:53;;;;;;;6.97;5.10;;;20.80;99.90;;;;;;21003198;28;20203;-63
2023/08/19 03:41:55;;;;;;;8.27;5.20;;;20.70;99.90;;;;;;21002559;28;20235;-70
2023/08/19 03:51:56;;;;;;;9.87;5.40;;;20.70;99.90;;;;;;21001441;28;20234;-62
2023/08/19 04:01:58;;;;;;;9.60;5.20;;;20.60;99.90;;;;;;21000520;28;20234;-63
2023/08/19 04:12:00;;;;;;;9.00;5.60;;;20.60;99.90;;;;;;21000166;28;20231;-73
2023/08/19 04:22:02;;;;;;;7.83;5.53;;;20.60;99.90;;;;;;20998962;28;20250;-72
2023/08/19 04:32:04;;;;;;;13.23;6.20;;;20.50;99.90;;;;;;20998510;28;20290;-72
2023/08/19 04:42:06;;;;;;;8.37;5.50;;;20.50;99.90;;;;;;20997816;28;20271;-69
2023/08/19 04:52:07;;;;;;;11.70;5.80;;;20.50;99.90;;;;;;21032666;28;20230;-72
2023/08/19 05:02:09;;;;;;;6.73;5.57;;;20.60;99.90;;;;;;21005960;28;20587;-73
2023/08/19 05:12:11;;;;;;;10.20;5.90;;;20.60;99.90;;;;;;20995561;28;20254;-62
2023/08/19 05:22:13;;;;;;;10.20;5.80;;;20.70;99.90;;;;;;20994865;28;20238;-70
2023/08/19 05:32:14;;;;;;;8.20;5.93;;;20.80;99.90;;;;;;20995189;28;20230;-64
2023/08/19 05:42:16;;;;;;;8.23;6.07;;;20.90;99.90;;;;;;20993157;28;20238;-62
2023/08/19 05:52:18;;;;;;;11.90;6.27;;;21.20;99.90;;;;;;20994236;28;20286;-62
2023/08/19 06:02:19;;;;;;;8.07;6.60;;;21.30;99.90;;;;;;20993753;28;20702;-69
2023/08/19 06:12:21;;;;;;;10.43;6.50;;;21.60;99.90;;;;;;20993675;28;20235;-63
2023/08/19 06:22:23;;;;;;;9.30;6.10;;;21.70;99.90;;;;;;20992417;28;20588;-68
2023/08/19 06:32:25;;;;;;;9.67;6.60;;;21.90;99.90;;;;;;20994399;28;20199;-67
2023/08/19 06:42:28;;;;;;;10.73;6.23;;;22.20;99.90;;;;;;21007018;28;20330;-68
2023/08/19 06:52:30;;;;;;;9.97;7.57;;;22.50;99.90;;;;;;21005481;28;20306;-65
2023/08/19 07:02:38;;;;;;;10.73;7.00;;;22.80;99.90;;;;;;21024955;28;20316;-65
2023/08/19 07:12:40;;;;;;;11.37;6.10;;;23.00;99.90;;;;;;21004434;28;20259;-66
2023/08/19 07:22:43;;;;;;;8.07;6.20;;;23.20;99.90;;;;;;21001638;28;20245;-65
2023/08/19 07:32:45;;;;;;;8.37;6.33;;;23.30;99.90;;;;;;21002678;28;20214;-67
2023/08/19 07:42:47;;;;;;;13.47;5.90;;;23.60;99.90;;;;;;21000444;28;20693;-66
2023/08/19 07:52:48;;;;;;;7.60;5.30;;;23.90;99.90;;;;;;21001157;28;20211;-71
2023/08/19 08:02:50;;;;;;;7.63;5.00;;;24.20;99.90;;;;;;20999612;28;20238;-68
2023/08/19 08:12:52;;;;;;;6.50;4.97;;;24.50;99.90;;;;;;20999436;28;20234;-66
2023/08/19 08:22:53;;;;;;;10.43;5.13;;;24.70;99.90;;;;;;20998666;28;20238;-65
2023/08/19 08:32:55;;;;;;;12.93;5.70;;;25.00;99.70;;;;;;20997554;28;20213;-67
2023/08/19 08:42:57;;;;;;;7.63;4.63;;;25.20;99.30;;;;;;20997102;28;20600;-66
2023/08/19 08:52:59;;;;;;;9.33;4.80;;;25.30;98.80;;;;;;20994594;28;20658;-68
2023/08/19 09:03:02;;;;;;;6.87;4.70;;;25.50;98.30;;;;;;21018663;28;20230;-68
2023/08/19 09:13:05;;;;;;;6.93;4.70;;;25.70;97.70;;;;;;21013351;28;20600;-69
2023/08/19 09:23:07;;;;;;;7.47;4.63;;;25.80;97.30;;;;;;21000915;28;20329;-73
2023/08/19 09:33:18;;;;;;;5.90;4.03;;;25.90;96.90;;;;;;21009143;28;20203;-71
2023/08/19 09:43:20;;;;;;;4.78;3.85;;;26.10;96.40;;;;;;20992283;28;20593;-66
2023/08/19 09:53:22;;;;;;;7.68;4.30;;;26.30;95.80;;;;;;21013335;28;20198;-70
2023/08/19 10:03:24;;;;;;;7.10;4.03;;;26.40;95.30;;;;;;21006421;28;20698;-66
2023/08/19 10:13:27;;;;;;;8.43;3.88;;;26.60;94.90;;;;;;21005171;28;20241;-67
2023/08/19 10:23:29;;;;;;;9.07;3.90;;;26.70;94.60;;;;;;21013715;28;20236;-66
2023/08/19 10:33:50;;;;;;;7.07;3.80;;;26.90;94.10;;;;;;21013722;28;20214;-67
2023/08/19 10:44:00;;;;;;;6.78;3.55;;;27.00;93.60;;;;;;21043045;28;20234;-67
2023/08/19 10:54:06;;;;;;;8.90;4.07;;;27.30;92.90;;;;;;21090121;28;20284;-66
2023/08/19 11:04:08;;;;;;;7.47;3.85;;;27.30;92.50;;;;;;21088917;28;20272;-71
2023/08/19 11:14:20;;;;;;;6.15;3.42;;;27.40;92.20;;;;;;21088147;28;20280;-72
2023/08/19 11:24:29;;;;;;;7.63;2.95;;;27.80;91.20;;;;;;21086934;28;20234;-69
2023/08/19 11:34:32;;;;;;;6.40;2.80;;;28.30;87.40;;;;;;21086648;28;20207;-70
2023/08/19 11:44:35;;;;;;;10.95;4.88;;;28.70;83.70;;;;;;21086035;28;20598;-69
2023/08/19 11:54:36;;;;;;;5.68;3.35;;;29.10;79.70;;;;;;21102309;28;20292;-70
2023/08/19 12:04:38;;;;;;;9.75;2.97;;;29.60;75.60;;;;;;21084403;28;20234;-76
2023/08/19 12:14:40;;;;;;;6.97;2.90;;;30.00;73.10;;;;;;21083972;28;20213;-70
2023/08/19 12:24:42;;;;;;;22.98;4.70;;;30.40;70.70;;;;;;21084545;28;20296;-68
2023/08/19 12:34:45;;;;;;;6.13;3.20;;;30.40;70.40;;;;;;21064216;28;20205;-66
2023/08/19 12:44:47;;;;;;;5.65;2.90;;;30.20;69.00;;;;;;21081115;28;20603;-69
2023/08/19 12:54:48;;;;;;;6.65;2.90;;;30.60;65.50;;;;;;21080594;28;20203;-70
2023/08/19 13:04:50;;;;;;;6.05;2.63;;;30.90;62.70;;;;;;21079684;28;20242;-65
2023/08/19 13:14:52;;;;;;;6.43;2.85;;;31.20;59.60;;;;;;21079770;28;20202;-72
2023/08/19 13:24:53;;;;;;;16.05;3.55;;;31.50;57.70;;;;;;21079173;28;20261;-66
2023/08/19 13:34:56;;;;;;;21.33;3.35;;;31.50;57.00;;;;;;21072840;28;20196;-64
2023/08/19 13:44:58;;;;;;;13.60;3.22;;;31.60;58.40;;;;;;21001914;28;20235;-70
2023/08/19 13:55:00;;;;;;;13.70;4.07;;;32.00;56.00;;;;;;21073447;28;20268;-71
2023/08/19 14:05:02;;;;;;;8.40;3.08;;;32.30;56.90;;;;;;21092342;28;20248;-75
2023/08/19 14:15:04;;;;;;;7.68;2.72;;;32.80;54.60;;;;;;21093741;28;20240;-83
2023/08/19 14:25:07;;;;;;;9.23;3.15;;;33.80;51.10;;;;;;21092892;28;20242;-74
2023/08/19 14:35:08;;;;;;;14.48;2.88;;;33.10;53.00;;;;;;21091749;28;20203;-71
2023/08/19 14:45:10;;;;;;;4.65;2.80;;;32.70;53.90;;;;;;21092358;28;20325;-73
2023/08/19 14:55:12;;;;;;;8.88;3.50;;;32.00;54.10;;;;;;21088217;28;20203;-75
2023/08/19 15:05:15;;;;;;;4.90;3.10;;;31.70;54.90;;;;;;21088895;28;20320;-64
2023/08/19 15:15:19;;;;;;;5.10;3.53;;;31.40;56.90;;;;;;21088564;28;20332;-65
2023/08/19 15:25:21;;;;;;;7.95;3.65;;;31.10;61.80;;;;;;21087873;28;20272;-68
2023/08/19 15:35:23;;;;;;;7.25;4.00;;;30.90;67.50;;;;;;21086661;28;20202;-65
2023/08/19 15:45:24;;;;;;;9.55;4.00;;;30.40;72.90;;;;;;21085622;28;20245;-70
2023/08/19 15:55:26;;;;;;;7.53;3.88;;;30.10;72.90;;;;;;21085836;28;20210;-70
2023/08/19 16:05:28;;;;;;;7.05;4.00;;;29.90;72.50;;;;;;21083884;28;20246;-65
2023/08/19 16:15:30;;;;;;;9.60;4.28;;;29.70;74.80;;;;;;21083449;28;20213;-66
2023/08/19 16:25:31;;;;;;;9.50;4.20;;;29.50;75.10;;;;;;21080162;28;20706;-64
2023/08/19 16:35:33;;;;;;;7.63;4.15;;;29.50;74.50;;;;;;21079406;28;20213;-68
2023/08/19 16:45:35;;;;;;;11.82;4.22;;;29.40;73.30;;;;;;21079019;28;20235;-68
2023/08/19 16:55:36;;;;;;;10.20;4.28;;;29.40;73.90;;;;;;21069145;28;20214;-69
2023/08/19 17:05:38;;;;;;;11.45;5.13;;;29.40;74.30;;;;;;21032376;28;20694;-68
2023/08/19 17:15:40;;;;;;;8.20;4.70;;;29.20;75.30;;;;;;21014578;28;20674;-71
2023/08/19 17:25:45;;;;;;;10.73;4.90;;;28.90;76.40;;;;;;20993662;28;20651;-69
2023/08/19 17:35:47;;;;;;;7.25;4.38;;;28.70;77.50;;;;;;20992929;28;20670;-69
2023/08/19 17:45:52;;;;;;;13.70;5.13;;;28.50;78.70;;;;;;20992312;28;20235;-68
2023/08/19 17:55:55;;;;;;;14.40;5.15;;;28.30;80.10;;;;;;20992533;28;20211;-69
2023/08/19 18:05:57;;;;;;;11.20;7.00;;;28.20;81.50;;;;;;20993346;28;20243;-69
2023/08/19 18:15:59;;;;;;;9.32;7.90;;;28.10;82.80;;;;;;20993362;28;20199;-68
2023/08/19 18:26:00;;;;;;;9.65;5.32;;;28.00;84.20;;;;;;20991934;28;20702;-68
